FDB2FL OMDB-ORBI
Flight info
| Callsign | FDB2FL |
|---|---|
| Flight time | 2h 2m |
| Altitude | 32000 |
| Route | RIDAP M557 TUMAK L602 LOVEK DCT BGD |
| Aircraft | B738/M-SDE2E3FGHIRWXY/LB1 |
Departure
| Time | 2026-04-25 17:55 |
|---|---|
| Airport | Dubai International Airport (OMDB) |
Arrival
| Time | 2026-04-25 19:58 |
|---|---|
| Airport | Baghdad International Airport / New Al Muthana Air Base (ORBI) |
| Time | Latitude | Longitude | Altitude | Speed | Heading |
|---|---|---|---|---|---|
| 2026-04-25 17:26 | 25.25737 | 55.37081 | 26 ft | 0 kts | 31° |
| 2026-04-25 17:44 | 25.25737 | 55.37082 | 26 ft | 0 kts | 31° |
| 2026-04-25 17:44 | 25.25729 | 55.37076 | 27 ft | 2 kts | 31° |
| 2026-04-25 17:44 | 25.25717 | 55.37068 | 27 ft | 2 kts | 31° |
| 2026-04-25 17:45 | 25.25704 | 55.37059 | 28 ft | 2 kts | 31° |
| 2026-04-25 17:45 | 25.25699 | 55.37056 | 28 ft | 2 kts | 31° |
| 2026-04-25 17:45 | 25.25678 | 55.37040 | 29 ft | 2 kts | 54° |
| 2026-04-25 17:45 | 25.25672 | 55.37026 | 30 ft | 2 kts | 81° |
| 2026-04-25 17:46 | 25.25673 | 55.37009 | 30 ft | 2 kts | 108° |
| 2026-04-25 17:46 | 25.25676 | 55.37001 | 29 ft | 1 kts | 124° |
| 2026-04-25 17:46 | 25.25679 | 55.36997 | 29 ft | 0 kts | 121° |
| 2026-04-25 17:51 | 25.25672 | 55.37011 | 30 ft | 8 kts | 118° |
| 2026-04-25 17:51 | 25.25641 | 55.37066 | 30 ft | 7 kts | 122° |
| 2026-04-25 17:51 | 25.25608 | 55.37125 | 31 ft | 13 kts | 121° |
| 2026-04-25 17:51 | 25.25540 | 55.37248 | 32 ft | 24 kts | 121° |
| 2026-04-25 17:52 | 25.25437 | 55.37430 | 30 ft | 26 kts | 122° |
| 2026-04-25 17:52 | 25.25404 | 55.37492 | 31 ft | 30 kts | 120° |
| 2026-04-25 17:52 | 25.25159 | 55.37936 | 25 ft | 41 kts | 121° |
| 2026-04-25 17:52 | 25.25034 | 55.38161 | 23 ft | 23 kts | 126° |
| 2026-04-25 17:53 | 25.24958 | 55.38207 | 24 ft | 6 kts | 174° |
| 2026-04-25 17:53 | 25.24936 | 55.38181 | 25 ft | 11 kts | 265° |
| 2026-04-25 17:53 | 25.24934 | 55.38155 | 25 ft | 0 kts | 259° |
| 2026-04-25 17:54 | 25.24915 | 55.38103 | 26 ft | 17 kts | 237° |
| 2026-04-25 17:54 | 25.24828 | 55.38008 | 30 ft | 16 kts | 275° |
| 2026-04-25 17:54 | 25.24893 | 55.37869 | 33 ft | 41 kts | 302° |
| 2026-04-25 17:54 | 25.25181 | 55.37351 | 39 ft | 116 kts | 301° |
| 2026-04-25 17:55 | 25.25716 | 55.36388 | 87 ft | 172 kts | 301° |
| 2026-04-25 17:55 | 25.26360 | 55.35239 | 767 ft | 181 kts | 301° |
| 2026-04-25 17:55 | 25.27029 | 55.34052 | 1592 ft | 184 kts | 302° |
| 2026-04-25 17:55 | 25.27677 | 55.32892 | 2338 ft | 183 kts | 302° |
| 2026-04-25 17:56 | 25.28368 | 55.31647 | 2837 ft | 196 kts | 302° |
| 2026-04-25 17:56 | 25.29071 | 55.30381 | 3620 ft | 194 kts | 302° |
| 2026-04-25 17:56 | 25.29790 | 55.29125 | 4337 ft | 195 kts | 304° |
| 2026-04-25 17:56 | 25.30579 | 55.27867 | 4795 ft | 210 kts | 306° |
| 2026-04-25 17:57 | 25.31472 | 55.26485 | 5268 ft | 228 kts | 306° |
| 2026-04-25 17:57 | 25.32399 | 55.25041 | 5949 ft | 236 kts | 305° |
| 2026-04-25 17:57 | 25.33341 | 55.23563 | 6753 ft | 238 kts | 304° |
| 2026-04-25 17:57 | 25.33656 | 55.23066 | 7007 ft | 239 kts | 304° |
| 2026-04-25 17:58 | 25.35251 | 55.20514 | 8260 ft | 245 kts | 299° |
| 2026-04-25 17:58 | 25.35907 | 55.18788 | 8892 ft | 251 kts | 279° |
| 2026-04-25 17:58 | 25.35968 | 55.16819 | 9410 ft | 264 kts | 266° |
| 2026-04-25 17:58 | 25.35817 | 55.14727 | 9931 ft | 280 kts | 264° |
| 2026-04-25 17:59 | 25.35671 | 55.12562 | 10424 ft | 294 kts | 265° |
| 2026-04-25 17:59 | 25.35555 | 55.10246 | 10840 ft | 310 kts | 266° |
| 2026-04-25 17:59 | 25.35460 | 55.07796 | 11252 ft | 326 kts | 266° |
| 2026-04-25 17:59 | 25.35371 | 55.05253 | 11617 ft | 341 kts | 266° |
| 2026-04-25 18:00 | 25.35309 | 55.03486 | 11875 ft | 351 kts | 266° |
| 2026-04-25 18:00 | 25.35178 | 54.99789 | 12302 ft | 372 kts | 266° |
| 2026-04-25 18:00 | 25.35073 | 54.96870 | 12814 ft | 380 kts | 266° |
| 2026-04-25 18:00 | 25.34967 | 54.93935 | 13452 ft | 385 kts | 266° |
| 2026-04-25 18:01 | 25.34975 | 54.90993 | 14170 ft | 387 kts | 273° |
| 2026-04-25 18:01 | 25.35416 | 54.88065 | 14833 ft | 391 kts | 282° |
| 2026-04-25 18:01 | 25.36168 | 54.85177 | 15430 ft | 395 kts | 285° |
| 2026-04-25 18:01 | 25.37052 | 54.82299 | 16067 ft | 398 kts | 287° |
| 2026-04-25 18:02 | 25.37969 | 54.79411 | 16682 ft | 401 kts | 287° |
| 2026-04-25 18:02 | 25.38883 | 54.76483 | 17228 ft | 405 kts | 286° |
| 2026-04-25 18:02 | 25.39776 | 54.73536 | 17841 ft | 406 kts | 285° |
| 2026-04-25 18:02 | 25.40653 | 54.70569 | 18416 ft | 409 kts | 285° |
| 2026-04-25 18:03 | 25.41519 | 54.67582 | 18996 ft | 411 kts | 285° |
| 2026-04-25 18:03 | 25.42378 | 54.64583 | 19633 ft | 411 kts | 285° |
| 2026-04-25 18:03 | 25.43246 | 54.61538 | 20148 ft | 414 kts | 285° |
| 2026-04-25 18:03 | 25.44120 | 54.58505 | 20683 ft | 416 kts | 285° |
| 2026-04-25 18:04 | 25.45014 | 54.55467 | 21236 ft | 418 kts | 285° |
| 2026-04-25 18:04 | 25.45912 | 54.52444 | 21751 ft | 419 kts | 286° |
| 2026-04-25 18:04 | 25.46822 | 54.49384 | 22248 ft | 421 kts | 285° |
| 2026-04-25 18:04 | 25.47737 | 54.46308 | 22783 ft | 422 kts | 285° |
| 2026-04-25 18:05 | 25.48655 | 54.43210 | 23215 ft | 425 kts | 285° |
| 2026-04-25 18:05 | 25.49579 | 54.40086 | 23698 ft | 427 kts | 285° |
| 2026-04-25 18:05 | 25.50496 | 54.36982 | 24176 ft | 428 kts | 285° |
| 2026-04-25 18:05 | 25.51418 | 54.33857 | 24625 ft | 430 kts | 285° |
| 2026-04-25 18:06 | 25.52339 | 54.30729 | 25028 ft | 433 kts | 285° |
| 2026-04-25 18:06 | 25.53282 | 54.27519 | 25473 ft | 435 kts | 285° |
| 2026-04-25 18:06 | 25.54218 | 54.24326 | 25858 ft | 438 kts | 285° |
| 2026-04-25 18:06 | 25.55159 | 54.21119 | 26253 ft | 441 kts | 285° |
| 2026-04-25 18:07 | 25.56104 | 54.17906 | 26659 ft | 443 kts | 285° |
| 2026-04-25 18:07 | 25.57052 | 54.14673 | 27032 ft | 446 kts | 285° |
| 2026-04-25 18:07 | 25.58014 | 54.11389 | 27389 ft | 449 kts | 285° |
| 2026-04-25 18:07 | 25.58976 | 54.08103 | 27816 ft | 450 kts | 285° |
| 2026-04-25 18:08 | 25.59933 | 54.04818 | 28332 ft | 448 kts | 284° |
| 2026-04-25 18:08 | 25.60876 | 54.01532 | 28804 ft | 447 kts | 284° |
| 2026-04-25 18:08 | 25.61805 | 53.98280 | 29297 ft | 446 kts | 284° |
| 2026-04-25 18:08 | 25.62731 | 53.95027 | 29882 ft | 443 kts | 284° |
| 2026-04-25 18:09 | 25.63645 | 53.91814 | 30481 ft | 438 kts | 284° |
| 2026-04-25 18:09 | 25.64560 | 53.88587 | 31108 ft | 433 kts | 284° |
| 2026-04-25 18:09 | 25.65458 | 53.85416 | 31658 ft | 429 kts | 284° |
| 2026-04-25 18:09 | 25.65745 | 53.84401 | 31802 ft | 428 kts | 284° |
| 2026-04-25 18:10 | 25.67242 | 53.79103 | 31889 ft | 438 kts | 285° |
| 2026-04-25 18:10 | 25.69078 | 53.72600 | 31891 ft | 446 kts | 285° |
| 2026-04-25 18:11 | 25.70917 | 53.66070 | 31890 ft | 444 kts | 285° |
| 2026-04-25 18:11 | 25.72750 | 53.59536 | 31891 ft | 445 kts | 284° |
| 2026-04-25 18:12 | 25.74571 | 53.53030 | 31889 ft | 443 kts | 284° |
| 2026-04-25 18:12 | 25.76408 | 53.46476 | 31887 ft | 444 kts | 285° |
| 2026-04-25 18:13 | 25.78236 | 53.39968 | 31890 ft | 443 kts | 285° |
| 2026-04-25 18:13 | 25.80059 | 53.33450 | 31889 ft | 442 kts | 284° |
| 2026-04-25 18:14 | 25.82786 | 53.23682 | 31892 ft | 442 kts | 284° |
| 2026-04-25 18:14 | 25.84687 | 53.17237 | 31884 ft | 442 kts | 288° |
| 2026-04-25 18:15 | 25.87110 | 53.10967 | 31886 ft | 444 kts | 291° |
| 2026-04-25 18:15 | 25.89716 | 53.04745 | 31888 ft | 443 kts | 291° |
| 2026-04-25 18:16 | 25.92312 | 52.98525 | 31892 ft | 442 kts | 291° |
| 2026-04-25 18:17 | 25.96125 | 52.89246 | 31898 ft | 442 kts | 291° |
| 2026-04-25 18:17 | 25.98660 | 52.83015 | 31905 ft | 441 kts | 291° |
| 2026-04-25 18:18 | 26.01155 | 52.76846 | 31885 ft | 440 kts | 291° |
| 2026-04-25 18:18 | 26.03728 | 52.70684 | 31901 ft | 440 kts | 293° |
| 2026-04-25 18:19 | 26.06479 | 52.64591 | 31901 ft | 441 kts | 294° |
| 2026-04-25 18:19 | 26.09257 | 52.58520 | 31907 ft | 439 kts | 294° |
| 2026-04-25 18:20 | 26.12023 | 52.52434 | 31902 ft | 440 kts | 294° |
| 2026-04-25 18:20 | 26.14764 | 52.46386 | 31912 ft | 440 kts | 294° |
| 2026-04-25 18:21 | 26.17507 | 52.40312 | 31911 ft | 439 kts | 294° |
| 2026-04-25 18:21 | 26.20235 | 52.34254 | 31914 ft | 440 kts | 294° |
| 2026-04-25 18:22 | 26.22965 | 52.28155 | 31918 ft | 437 kts | 293° |
| 2026-04-25 18:22 | 26.25594 | 52.22113 | 31914 ft | 435 kts | 292° |
| 2026-04-25 18:23 | 26.28221 | 52.16005 | 31918 ft | 435 kts | 293° |
| 2026-04-25 18:23 | 26.30824 | 52.09954 | 31910 ft | 436 kts | 292° |
| 2026-04-25 18:24 | 26.33450 | 52.03859 | 31903 ft | 434 kts | 293° |
| 2026-04-25 18:24 | 26.36065 | 51.97798 | 31908 ft | 434 kts | 293° |
| 2026-04-25 18:25 | 26.38566 | 51.91701 | 31904 ft | 434 kts | 290° |
| 2026-04-25 18:25 | 26.40697 | 51.85439 | 31906 ft | 434 kts | 288° |
| 2026-04-25 18:26 | 26.42754 | 51.79092 | 31907 ft | 434 kts | 288° |
| 2026-04-25 18:26 | 26.44818 | 51.72786 | 31906 ft | 435 kts | 288° |
| 2026-04-25 18:27 | 26.46915 | 51.66449 | 31908 ft | 434 kts | 288° |
| 2026-04-25 18:27 | 26.49017 | 51.60129 | 31916 ft | 435 kts | 288° |
| 2026-04-25 18:28 | 26.51100 | 51.53866 | 31909 ft | 433 kts | 288° |
| 2026-04-25 18:28 | 26.53197 | 51.47555 | 31911 ft | 433 kts | 288° |
| 2026-04-25 18:29 | 26.56338 | 51.38081 | 31915 ft | 434 kts | 288° |
| 2026-04-25 18:30 | 26.60519 | 51.25444 | 31921 ft | 432 kts | 288° |
| 2026-04-25 18:30 | 26.62599 | 51.19165 | 31923 ft | 432 kts | 288° |
| 2026-04-25 18:31 | 26.64677 | 51.12880 | 31919 ft | 432 kts | 288° |
| 2026-04-25 18:31 | 26.66746 | 51.06609 | 31925 ft | 434 kts | 287° |
| 2026-04-25 18:32 | 26.68825 | 51.00297 | 31925 ft | 432 kts | 287° |
| 2026-04-25 18:32 | 26.70863 | 50.93993 | 31923 ft | 431 kts | 287° |
| 2026-04-25 18:33 | 26.72867 | 50.87703 | 31925 ft | 431 kts | 287° |
| 2026-04-25 18:33 | 26.74858 | 50.81443 | 31925 ft | 430 kts | 287° |
| 2026-04-25 18:34 | 26.76866 | 50.75135 | 31924 ft | 431 kts | 287° |
| 2026-04-25 18:34 | 26.78921 | 50.68847 | 31928 ft | 432 kts | 289° |
| 2026-04-25 18:35 | 26.81715 | 50.62879 | 31930 ft | 436 kts | 300° |
| 2026-04-25 18:35 | 26.85444 | 50.57450 | 31933 ft | 441 kts | 304° |
| 2026-04-25 18:36 | 26.89345 | 50.52228 | 31935 ft | 439 kts | 305° |
| 2026-04-25 18:36 | 26.93333 | 50.46961 | 31935 ft | 443 kts | 307° |
| 2026-04-25 18:37 | 26.97548 | 50.41946 | 31939 ft | 443 kts | 309° |
| 2026-04-25 18:37 | 27.01821 | 50.37009 | 31935 ft | 441 kts | 308° |
| 2026-04-25 18:38 | 27.06111 | 50.31998 | 31940 ft | 443 kts | 308° |
| 2026-04-25 18:38 | 27.10322 | 50.26981 | 31943 ft | 443 kts | 307° |
| 2026-04-25 18:39 | 27.14534 | 50.21938 | 31943 ft | 443 kts | 308° |
| 2026-04-25 18:39 | 27.19161 | 50.17303 | 31943 ft | 449 kts | 315° |
| 2026-04-25 18:40 | 27.24155 | 50.13131 | 31944 ft | 451 kts | 317° |
| 2026-04-25 18:40 | 27.29262 | 50.09007 | 31944 ft | 448 kts | 317° |
| 2026-04-25 18:41 | 27.34337 | 50.04882 | 31947 ft | 452 kts | 317° |
| 2026-04-25 18:41 | 27.39366 | 50.00690 | 31945 ft | 447 kts | 316° |
| 2026-04-25 18:42 | 27.42620 | 49.97853 | 31947 ft | 446 kts | 315° |
| 2026-04-25 18:42 | 27.49132 | 49.92077 | 31949 ft | 447 kts | 315° |
| 2026-04-25 18:43 | 27.54030 | 49.87731 | 31947 ft | 447 kts | 315° |
| 2026-04-25 18:43 | 27.58932 | 49.83393 | 31947 ft | 448 kts | 315° |
| 2026-04-25 18:44 | 27.63823 | 49.79071 | 31947 ft | 448 kts | 315° |
| 2026-04-25 18:44 | 27.68707 | 49.74754 | 31950 ft | 444 kts | 315° |
| 2026-04-25 18:45 | 27.73586 | 49.70432 | 31948 ft | 448 kts | 315° |
| 2026-04-25 18:45 | 27.78505 | 49.66072 | 31954 ft | 448 kts | 315° |
| 2026-04-25 18:46 | 27.83388 | 49.61723 | 31953 ft | 445 kts | 315° |
| 2026-04-25 18:46 | 27.88242 | 49.57386 | 31953 ft | 447 kts | 315° |
| 2026-04-25 18:47 | 27.93111 | 49.53031 | 31962 ft | 446 kts | 315° |
| 2026-04-25 18:47 | 27.97964 | 49.48687 | 31966 ft | 444 kts | 315° |
| 2026-04-25 18:48 | 28.02811 | 49.44341 | 31964 ft | 445 kts | 314° |
| 2026-04-25 18:48 | 28.07600 | 49.40003 | 31971 ft | 442 kts | 314° |
| 2026-04-25 18:49 | 28.12403 | 49.35613 | 31971 ft | 444 kts | 314° |
| 2026-04-25 18:49 | 28.17228 | 49.31193 | 31965 ft | 442 kts | 313° |
| 2026-04-25 18:50 | 28.22040 | 49.26785 | 31968 ft | 446 kts | 313° |
| 2026-04-25 18:50 | 28.26852 | 49.22375 | 31972 ft | 443 kts | 313° |
| 2026-04-25 18:51 | 28.30050 | 49.19444 | 31968 ft | 444 kts | 313° |
| 2026-04-25 18:51 | 28.36440 | 49.13581 | 31969 ft | 444 kts | 314° |
| 2026-04-25 18:52 | 28.41312 | 49.09218 | 31975 ft | 448 kts | 316° |
| 2026-04-25 18:52 | 28.46453 | 49.05188 | 31967 ft | 450 kts | 318° |
| 2026-04-25 18:53 | 28.51674 | 49.01273 | 31974 ft | 451 kts | 319° |
| 2026-04-25 18:53 | 28.56854 | 48.97377 | 31969 ft | 450 kts | 318° |
| 2026-04-25 18:54 | 28.64667 | 48.91424 | 31955 ft | 448 kts | 318° |
| 2026-04-25 18:55 | 28.69852 | 48.87442 | 31963 ft | 450 kts | 317° |
| 2026-04-25 18:55 | 28.75000 | 48.83478 | 31953 ft | 449 kts | 317° |
| 2026-04-25 18:56 | 28.80198 | 48.79465 | 31956 ft | 448 kts | 317° |
| 2026-04-25 18:56 | 28.85366 | 48.75493 | 31959 ft | 449 kts | 318° |
| 2026-04-25 18:57 | 28.90583 | 48.71495 | 31960 ft | 453 kts | 317° |
| 2026-04-25 18:57 | 28.95808 | 48.67495 | 31961 ft | 450 kts | 318° |
| 2026-04-25 18:58 | 29.01023 | 48.63495 | 31961 ft | 451 kts | 317° |
| 2026-04-25 18:58 | 29.08893 | 48.57434 | 31968 ft | 457 kts | 317° |
| 2026-04-25 18:59 | 29.19682 | 48.49079 | 27909 ft | 503 kts | 319° |
| 2026-04-25 19:00 | 29.25116 | 48.44886 | 28554 ft | 434 kts | 319° |
| 2026-04-25 19:00 | 29.27631 | 48.42962 | 28425 ft | 440 kts | 319° |
| 2026-04-25 19:01 | 29.32700 | 48.39053 | 27798 ft | 436 kts | 319° |
| 2026-04-25 19:01 | 29.35213 | 48.37123 | 27775 ft | 430 kts | 319° |
| 2026-04-25 19:01 | 29.37688 | 48.35214 | 27785 ft | 434 kts | 319° |
| 2026-04-25 19:01 | 29.40211 | 48.33252 | 28038 ft | 432 kts | 318° |
| 2026-04-25 19:02 | 29.45199 | 48.29409 | 28804 ft | 433 kts | 320° |
| 2026-04-25 19:02 | 29.47771 | 48.27607 | 29197 ft | 433 kts | 321° |
| 2026-04-25 19:02 | 29.50376 | 48.25891 | 29731 ft | 430 kts | 321° |
| 2026-04-25 19:03 | 29.53822 | 48.23685 | 30450 ft | 425 kts | 321° |
| 2026-04-25 19:03 | 29.58087 | 48.20970 | 31356 ft | 416 kts | 321° |
| 2026-04-25 19:03 | 29.60607 | 48.19350 | 31854 ft | 412 kts | 321° |
| 2026-04-25 19:04 | 29.65657 | 48.16044 | 31967 ft | 424 kts | 320° |
| 2026-04-25 19:04 | 29.68242 | 48.14336 | 31966 ft | 431 kts | 320° |
| 2026-04-25 19:05 | 29.78721 | 48.07410 | 31967 ft | 444 kts | 321° |
| 2026-04-25 19:06 | 29.84173 | 48.03793 | 31970 ft | 459 kts | 321° |
| 2026-04-25 19:06 | 29.92595 | 47.98203 | 31967 ft | 468 kts | 322° |
| 2026-04-25 19:07 | 30.00936 | 47.92404 | 31966 ft | 460 kts | 316° |
| 2026-04-25 19:08 | 30.05594 | 47.87562 | 31966 ft | 448 kts | 305° |
| 2026-04-25 19:08 | 30.07684 | 47.84880 | 31964 ft | 449 kts | 303° |
| 2026-04-25 19:09 | 30.14400 | 47.75779 | 31965 ft | 448 kts | 302° |
| 2026-04-25 19:10 | 30.21786 | 47.65767 | 31969 ft | 450 kts | 303° |
| 2026-04-25 19:10 | 30.25860 | 47.60286 | 31971 ft | 445 kts | 302° |
| 2026-04-25 19:11 | 30.29903 | 47.54855 | 31970 ft | 448 kts | 303° |
| 2026-04-25 19:11 | 30.33956 | 47.49407 | 31970 ft | 447 kts | 303° |
| 2026-04-25 19:12 | 30.38020 | 47.43940 | 31969 ft | 449 kts | 303° |
| 2026-04-25 19:12 | 30.42091 | 47.38457 | 31967 ft | 447 kts | 303° |
| 2026-04-25 19:13 | 30.46144 | 47.32988 | 31962 ft | 451 kts | 302° |
| 2026-04-25 19:13 | 30.50224 | 47.27478 | 31963 ft | 449 kts | 302° |
| 2026-04-25 19:14 | 30.54278 | 47.21998 | 31959 ft | 445 kts | 302° |
| 2026-04-25 19:14 | 30.58302 | 47.16541 | 31962 ft | 453 kts | 303° |
| 2026-04-25 19:15 | 30.62370 | 47.11025 | 31959 ft | 447 kts | 302° |
| 2026-04-25 19:15 | 30.66454 | 47.05473 | 31949 ft | 450 kts | 303° |
| 2026-04-25 19:16 | 30.70481 | 47.00002 | 31951 ft | 448 kts | 303° |
| 2026-04-25 19:16 | 30.74536 | 46.94474 | 31952 ft | 454 kts | 303° |
| 2026-04-25 19:17 | 30.78622 | 46.88892 | 31945 ft | 455 kts | 302° |
| 2026-04-25 19:17 | 30.82703 | 46.83321 | 31953 ft | 453 kts | 302° |
| 2026-04-25 19:18 | 30.86782 | 46.77738 | 31941 ft | 455 kts | 303° |
| 2026-04-25 19:18 | 30.90891 | 46.72115 | 31933 ft | 458 kts | 303° |
| 2026-04-25 19:19 | 30.94994 | 46.66495 | 31929 ft | 455 kts | 302° |
| 2026-04-25 19:19 | 30.99095 | 46.60851 | 31932 ft | 457 kts | 302° |
| 2026-04-25 19:20 | 31.03230 | 46.55155 | 31927 ft | 462 kts | 303° |
| 2026-04-25 19:20 | 31.07368 | 46.49459 | 31930 ft | 462 kts | 302° |
| 2026-04-25 19:21 | 31.11546 | 46.43691 | 31932 ft | 461 kts | 302° |
| 2026-04-25 19:21 | 31.17726 | 46.35156 | 31931 ft | 461 kts | 302° |
| 2026-04-25 19:22 | 31.21868 | 46.29413 | 31934 ft | 463 kts | 302° |
| 2026-04-25 19:23 | 31.28069 | 46.20808 | 31933 ft | 462 kts | 302° |
| 2026-04-25 19:23 | 31.34243 | 46.12209 | 31927 ft | 463 kts | 302° |
| 2026-04-25 19:24 | 31.38361 | 46.06460 | 31933 ft | 462 kts | 302° |
| 2026-04-25 19:25 | 31.46642 | 45.94868 | 31925 ft | 466 kts | 301° |
| 2026-04-25 19:25 | 31.50781 | 45.89063 | 31927 ft | 466 kts | 302° |
| 2026-04-25 19:26 | 31.54927 | 45.83256 | 31929 ft | 462 kts | 302° |
| 2026-04-25 19:26 | 31.59051 | 45.77463 | 31924 ft | 462 kts | 302° |
| 2026-04-25 19:27 | 31.61775 | 45.73638 | 31928 ft | 463 kts | 302° |
| 2026-04-25 19:27 | 31.68174 | 45.66665 | 31927 ft | 479 kts | 315° |
| 2026-04-25 19:28 | 31.73568 | 45.62087 | 31925 ft | 482 kts | 317° |
| 2026-04-25 19:28 | 31.78696 | 45.57149 | 31930 ft | 464 kts | 305° |
| 2026-04-25 19:29 | 31.81022 | 45.54503 | 31922 ft | 475 kts | 316° |
| 2026-04-25 19:29 | 31.83995 | 45.52638 | 31936 ft | 493 kts | 332° |
| 2026-04-25 19:29 | 31.90328 | 45.49687 | 31520 ft | 485 kts | 330° |
| 2026-04-25 19:30 | 31.93430 | 45.48154 | 30654 ft | 487 kts | 330° |
| 2026-04-25 19:30 | 31.96584 | 45.46568 | 29604 ft | 493 kts | 330° |
| 2026-04-25 19:30 | 31.99681 | 45.44956 | 28709 ft | 492 kts | 328° |
| 2026-04-25 19:30 | 32.02747 | 45.43171 | 27946 ft | 487 kts | 327° |
| 2026-04-25 19:31 | 32.05709 | 45.41311 | 27088 ft | 485 kts | 326° |
| 2026-04-25 19:31 | 32.08688 | 45.39365 | 26088 ft | 487 kts | 326° |
| 2026-04-25 19:31 | 32.11606 | 45.37407 | 25148 ft | 486 kts | 325° |
| 2026-04-25 19:31 | 32.14469 | 45.35381 | 24589 ft | 475 kts | 323° |
| 2026-04-25 19:32 | 32.17246 | 45.33247 | 23815 ft | 470 kts | 322° |
| 2026-04-25 19:32 | 32.19942 | 45.31065 | 23190 ft | 463 kts | 321° |
| 2026-04-25 19:32 | 32.22567 | 45.28888 | 22437 ft | 459 kts | 321° |
| 2026-04-25 19:32 | 32.23407 | 45.28182 | 22204 ft | 457 kts | 321° |
| 2026-04-25 19:33 | 32.27687 | 45.24532 | 21029 ft | 450 kts | 320° |
| 2026-04-25 19:33 | 32.30196 | 45.22364 | 20321 ft | 446 kts | 321° |
| 2026-04-25 19:33 | 32.32673 | 45.20204 | 19592 ft | 442 kts | 321° |
| 2026-04-25 19:33 | 32.35100 | 45.18063 | 18961 ft | 436 kts | 321° |
| 2026-04-25 19:34 | 32.37504 | 45.15919 | 18267 ft | 432 kts | 321° |
| 2026-04-25 19:34 | 32.39911 | 45.13754 | 17568 ft | 429 kts | 321° |
| 2026-04-25 19:34 | 32.42254 | 45.11631 | 16837 ft | 426 kts | 320° |
| 2026-04-25 19:34 | 32.44596 | 45.09496 | 16138 ft | 422 kts | 320° |
| 2026-04-25 19:35 | 32.46912 | 45.07378 | 15438 ft | 419 kts | 321° |
| 2026-04-25 19:35 | 32.49190 | 45.05282 | 14743 ft | 416 kts | 321° |
| 2026-04-25 19:35 | 32.51447 | 45.03190 | 14017 ft | 414 kts | 321° |
| 2026-04-25 19:35 | 32.53718 | 45.01072 | 13294 ft | 411 kts | 321° |
| 2026-04-25 19:36 | 32.55935 | 44.98993 | 12586 ft | 409 kts | 321° |
| 2026-04-25 19:36 | 32.58167 | 44.96892 | 11837 ft | 408 kts | 321° |
| 2026-04-25 19:36 | 32.60358 | 44.94826 | 11204 ft | 403 kts | 321° |
| 2026-04-25 19:36 | 32.62527 | 44.92797 | 11016 ft | 390 kts | 323° |
| 2026-04-25 19:37 | 32.64856 | 44.91142 | 11157 ft | 391 kts | 332° |
| 2026-04-25 19:37 | 32.67318 | 44.89658 | 11177 ft | 405 kts | 332° |
| 2026-04-25 19:37 | 32.69825 | 44.88052 | 11164 ft | 406 kts | 330° |
| 2026-04-25 19:37 | 32.72275 | 44.86424 | 11051 ft | 406 kts | 330° |
| 2026-04-25 19:38 | 32.74757 | 44.84756 | 10947 ft | 404 kts | 330° |
| 2026-04-25 19:38 | 32.77202 | 44.83104 | 10924 ft | 404 kts | 330° |
| 2026-04-25 19:38 | 32.79665 | 44.81437 | 10921 ft | 404 kts | 330° |
| 2026-04-25 19:38 | 32.82112 | 44.79777 | 10922 ft | 405 kts | 330° |
| 2026-04-25 19:39 | 32.84560 | 44.78115 | 10923 ft | 405 kts | 330° |
| 2026-04-25 19:39 | 32.86992 | 44.76461 | 10919 ft | 403 kts | 330° |
| 2026-04-25 19:39 | 32.89440 | 44.74795 | 10917 ft | 404 kts | 330° |
| 2026-04-25 19:39 | 32.91889 | 44.73129 | 10920 ft | 404 kts | 329° |
| 2026-04-25 19:40 | 32.94327 | 44.71469 | 10919 ft | 404 kts | 330° |
| 2026-04-25 19:40 | 32.96778 | 44.69802 | 10916 ft | 404 kts | 330° |
| 2026-04-25 19:40 | 32.99218 | 44.68145 | 10915 ft | 405 kts | 330° |
| 2026-04-25 19:40 | 33.01663 | 44.66489 | 10825 ft | 402 kts | 330° |
| 2026-04-25 19:41 | 33.04062 | 44.64865 | 10583 ft | 387 kts | 330° |
| 2026-04-25 19:41 | 33.06380 | 44.63294 | 10336 ft | 374 kts | 330° |
| 2026-04-25 19:41 | 33.08584 | 44.61798 | 10090 ft | 362 kts | 330° |
| 2026-04-25 19:41 | 33.09332 | 44.61288 | 10005 ft | 359 kts | 330° |
| 2026-04-25 19:42 | 33.12844 | 44.58887 | 9596 ft | 343 kts | 330° |
| 2026-04-25 19:42 | 33.14889 | 44.57487 | 9354 ft | 334 kts | 330° |
| 2026-04-25 19:42 | 33.16893 | 44.56101 | 9112 ft | 325 kts | 328° |
| 2026-04-25 19:42 | 33.18765 | 44.54673 | 8865 ft | 317 kts | 326° |
| 2026-04-25 19:43 | 33.20562 | 44.53209 | 8618 ft | 310 kts | 325° |
| 2026-04-25 19:43 | 33.22313 | 44.51759 | 8369 ft | 303 kts | 325° |
| 2026-04-25 19:43 | 33.24036 | 44.50326 | 8123 ft | 297 kts | 325° |
| 2026-04-25 19:43 | 33.25732 | 44.48914 | 7879 ft | 291 kts | 325° |
| 2026-04-25 19:44 | 33.27367 | 44.47548 | 7627 ft | 286 kts | 325° |
| 2026-04-25 19:44 | 33.28999 | 44.46182 | 7382 ft | 284 kts | 325° |
| 2026-04-25 19:44 | 33.30604 | 44.44838 | 7134 ft | 282 kts | 325° |
| 2026-04-25 19:44 | 33.32211 | 44.43490 | 6883 ft | 281 kts | 325° |
| 2026-04-25 19:45 | 33.33824 | 44.42135 | 6655 ft | 282 kts | 325° |
| 2026-04-25 19:45 | 33.35437 | 44.40778 | 6407 ft | 282 kts | 325° |
| 2026-04-25 19:45 | 33.37027 | 44.39437 | 6172 ft | 281 kts | 325° |
| 2026-04-25 19:45 | 33.38636 | 44.38077 | 5932 ft | 281 kts | 325° |
| 2026-04-25 19:46 | 33.40222 | 44.36734 | 5703 ft | 281 kts | 325° |
| 2026-04-25 19:46 | 33.41817 | 44.35382 | 5453 ft | 280 kts | 325° |
| 2026-04-25 19:46 | 33.43408 | 44.34029 | 5201 ft | 279 kts | 324° |
| 2026-04-25 19:46 | 33.45019 | 44.32655 | 4960 ft | 278 kts | 325° |
| 2026-04-25 19:47 | 33.46600 | 44.31308 | 4730 ft | 280 kts | 324° |
| 2026-04-25 19:47 | 33.48181 | 44.29959 | 4483 ft | 279 kts | 324° |
| 2026-04-25 19:47 | 33.49779 | 44.28599 | 4244 ft | 279 kts | 324° |
| 2026-04-25 19:47 | 33.51360 | 44.27253 | 4007 ft | 279 kts | 324° |
| 2026-04-25 19:48 | 33.52954 | 44.25892 | 3751 ft | 278 kts | 324° |
| 2026-04-25 19:48 | 33.54500 | 44.24542 | 3548 ft | 276 kts | 319° |
| 2026-04-25 19:48 | 33.55628 | 44.22720 | 3533 ft | 274 kts | 287° |
| 2026-04-25 19:48 | 33.55819 | 44.20466 | 3536 ft | 270 kts | 257° |
| 2026-04-25 19:49 | 33.55216 | 44.18376 | 3533 ft | 261 kts | 236° |
| 2026-04-25 19:49 | 33.54910 | 44.17791 | 3531 ft | 258 kts | 230° |
| 2026-04-25 19:49 | 33.52818 | 44.15252 | 3530 ft | 252 kts | 211° |
| 2026-04-25 19:49 | 33.51340 | 44.14127 | 3532 ft | 250 kts | 206° |
| 2026-04-25 19:50 | 33.48443 | 44.12037 | 3528 ft | 234 kts | 205° |
| 2026-04-25 19:50 | 33.46993 | 44.11232 | 3528 ft | 222 kts | 191° |
| 2026-04-25 19:50 | 33.45493 | 44.11120 | 3534 ft | 212 kts | 166° |
| 2026-04-25 19:51 | 33.44171 | 44.11796 | 3532 ft | 208 kts | 141° |
| 2026-04-25 19:51 | 33.43241 | 44.13129 | 3395 ft | 212 kts | 117° |
| 2026-04-25 19:51 | 33.42901 | 44.14838 | 3200 ft | 213 kts | 97° |
| 2026-04-25 19:51 | 33.42730 | 44.16589 | 3060 ft | 211 kts | 105° |
| 2026-04-25 19:52 | 33.42270 | 44.18217 | 2885 ft | 205 kts | 118° |
| 2026-04-25 19:52 | 33.41506 | 44.19625 | 2673 ft | 199 kts | 130° |
| 2026-04-25 19:52 | 33.40535 | 44.20726 | 2566 ft | 183 kts | 143° |
| 2026-04-25 19:52 | 33.39434 | 44.21325 | 2629 ft | 168 kts | 165° |
| 2026-04-25 19:53 | 33.38231 | 44.21254 | 2466 ft | 182 kts | 189° |
| 2026-04-25 19:53 | 33.37019 | 44.20847 | 2149 ft | 187 kts | 190° |
| 2026-04-25 19:53 | 33.35749 | 44.20414 | 1812 ft | 178 kts | 188° |
| 2026-04-25 19:53 | 33.34651 | 44.20076 | 1981 ft | 153 kts | 186° |
| 2026-04-25 19:54 | 33.33608 | 44.19850 | 1699 ft | 147 kts | 173° |
| 2026-04-25 19:54 | 33.32634 | 44.20137 | 1043 ft | 150 kts | 149° |
| 2026-04-25 19:54 | 33.31822 | 44.20771 | 895 ft | 131 kts | 143° |
| 2026-04-25 19:54 | 33.31565 | 44.20971 | 851 ft | 133 kts | 144° |
| 2026-04-25 19:55 | 33.30992 | 44.21381 | 807 ft | 138 kts | 146° |
| 2026-04-25 19:56 | 33.30537 | 44.21663 | 690 ft | 145 kts | 151° |
| 2026-04-25 19:56 | 33.29639 | 44.22220 | 370 ft | 143 kts | 143° |
| 2026-04-25 19:57 | 33.28782 | 44.22844 | 222 ft | 142 kts | 144° |
| 2026-04-25 19:57 | 33.27905 | 44.23441 | 146 ft | 144 kts | 146° |
| 2026-04-25 19:57 | 33.27036 | 44.24036 | 120 ft | 128 kts | 154° |
| 2026-04-25 19:57 | 33.26431 | 44.24378 | 120 ft | 54 kts | 169° |
| 2026-04-25 19:58 | 33.26255 | 44.24365 | 120 ft | 10 kts | 236° |
| 2026-04-25 19:58 | 33.26284 | 44.24303 | 120 ft | 17 kts | 327° |
| 2026-04-25 19:58 | 33.26473 | 44.24166 | 120 ft | 46 kts | 327° |
| 2026-04-25 19:58 | 33.26753 | 44.23972 | 120 ft | 29 kts | 330° |
| 2026-04-25 19:59 | 33.26929 | 44.23851 | 120 ft | 28 kts | 330° |
| 2026-04-25 19:59 | 33.27101 | 44.23733 | 120 ft | 27 kts | 330° |
| 2026-04-25 19:59 | 33.27197 | 44.23667 | 120 ft | 0 kts | 329° |
| 2026-04-25 19:59 | 33.27205 | 44.23661 | 120 ft | 2 kts | 330° |
| 2026-04-25 20:00 | 33.27222 | 44.23650 | 120 ft | 3 kts | 330° |
| 2026-04-25 20:00 | 33.27228 | 44.23645 | 120 ft | 3 kts | 330° |
| 2026-04-25 20:00 | 33.27368 | 44.23539 | 120 ft | 15 kts | 300° |
| 2026-04-25 20:00 | 33.27336 | 44.23427 | 120 ft | 13 kts | 243° |
| 2026-04-25 20:01 | 33.27233 | 44.23212 | 120 ft | 20 kts | 240° |
| 2026-04-25 20:01 | 33.27201 | 44.23142 | 120 ft | 1 kts | 240° |
| 2026-04-25 20:01 | 33.27153 | 44.23056 | 120 ft | 25 kts | 234° |
| 2026-04-25 20:02 | 33.27065 | 44.22911 | 120 ft | 14 kts | 206° |
| 2026-04-25 20:02 | 33.26982 | 44.22937 | 120 ft | 12 kts | 149° |
| 2026-04-25 20:02 | 33.26946 | 44.22988 | 120 ft | 0 kts | 126° |